Time;durP1;ratioP1;P1;durP2;ratioP2;P2;SDS_P1;SDS_P2;PMS_P1;PMS_P2;Temp;Humidity;BMP_temperature;BMP_pressure;BME280_temperature;BME280_humidity;BME280_pressure;Samples;Min_cycle;Max_cycle;Signal;HPM_P1;HPM_P2
2023/08/17 00:02:19;;;;;;;6.38;2.28;;;18.50;99.90;;;19.10;100.00;101120.66;5062811;28;20048;-81
2023/08/17 00:04:44;;;;;;;6.85;2.25;;;18.50;99.90;;;19.03;100.00;101106.22;5069203;28;20041;-80
2023/08/17 00:07:10;;;;;;;5.53;2.00;;;18.50;99.90;;;19.04;100.00;101099.59;5064357;28;20028;-81
2023/08/17 00:09:36;;;;;;;4.38;2.20;;;18.50;99.90;;;18.98;100.00;101086.81;5067915;28;20451;-80
2023/08/17 00:12:02;;;;;;;7.50;2.42;;;18.40;99.90;;;18.97;100.00;101088.72;5068171;28;20099;-80
2023/08/17 00:14:28;;;;;;;5.25;2.30;;;18.40;99.90;;;19.07;100.00;101096.28;5067756;28;20078;-80
2023/08/17 00:16:53;;;;;;;6.75;2.50;;;18.30;99.90;;;19.15;100.00;101096.94;5067290;28;20033;-80
2023/08/17 00:19:19;;;;;;;6.13;2.45;;;18.30;99.90;;;19.18;100.00;101096.38;5068953;28;20033;-81
2023/08/17 00:21:45;;;;;;;6.45;2.55;;;18.30;99.90;;;19.16;100.00;101098.59;5049864;28;20497;-81
2023/08/17 00:24:11;;;;;;;3.45;2.00;;;18.20;99.90;;;19.17;100.00;101100.25;5061495;28;20043;-81
2023/08/17 00:26:37;;;;;;;4.88;2.20;;;18.20;99.90;;;19.11;100.00;101080.88;5068997;28;20391;-81
2023/08/17 00:29:04;;;;;;;4.70;2.50;;;18.10;99.90;;;19.15;100.00;101080.34;5050651;28;20102;-81
2023/08/17 00:31:30;;;;;;;7.65;2.60;;;18.10;99.90;;;19.17;100.00;101075.38;5064796;28;20549;-82
2023/08/17 00:33:55;;;;;;;10.38;2.92;;;18.10;99.90;;;19.08;100.00;101064.78;5069107;28;20040;-81
2023/08/17 00:36:21;;;;;;;6.90;2.80;;;18.10;99.90;;;19.04;100.00;101054.53;5069256;28;20041;-82
2023/08/17 00:38:47;;;;;;;6.25;2.90;;;18.00;99.90;;;18.99;100.00;101035.97;5066803;28;20060;-80
2023/08/17 00:41:12;;;;;;;12.40;3.20;;;18.00;99.90;;;18.99;100.00;101041.50;5055038;28;20025;-80
2023/08/17 00:43:38;;;;;;;6.65;2.80;;;17.90;99.90;;;18.85;100.00;101018.13;5050756;28;20040;-81
2023/08/17 00:46:05;;;;;;;7.78;3.17;;;17.90;99.90;;;18.81;100.00;101015.88;5040443;28;20122;-80
2023/08/17 00:48:31;;;;;;;5.55;2.97;;;17.80;99.90;;;18.70;100.00;101000.31;5050046;28;20083;-79
2023/08/17 00:50:59;;;;;;;9.57;3.33;;;17.80;99.90;;;18.60;100.00;100997.47;5068763;28;20100;-79
2023/08/17 00:53:30;;;;;;;5.72;2.97;;;17.80;99.90;;;18.52;100.00;100968.41;5060581;28;20048;-79
2023/08/17 00:56:01;;;;;;;7.78;3.60;;;17.70;99.90;;;18.63;100.00;100974.84;5068746;28;20111;-79
2023/08/17 00:58:28;;;;;;;4.85;3.13;;;17.70;99.90;;;18.61;100.00;100982.56;5066272;28;20130;-79
2023/08/17 01:00:53;;;;;;;6.85;3.45;;;17.60;99.90;;;18.52;100.00;100971.97;5063407;28;20043;-79
2023/08/17 01:03:22;;;;;;;9.82;3.40;;;17.60;99.90;;;18.50;100.00;100963.13;5063090;28;20040;-77
2023/08/17 01:05:48;;;;;;;8.85;4.13;;;17.60;99.90;;;18.44;100.00;100950.38;5061634;28;20037;-77
2023/08/17 01:08:13;;;;;;;9.48;3.80;;;17.60;99.90;;;18.47;100.00;100943.50;5067258;28;20040;-78
2023/08/17 01:11:09;;;;;;;8.15;3.80;;;17.60;99.90;;;18.44;100.00;100933.78;5068325;28;20044;-76
2023/08/17 01:13:42;;;;;;;8.75;3.90;;;17.60;99.90;;;18.46;100.00;100952.88;5058461;28;20686;-77
2023/08/17 01:16:20;;;;;;;7.53;4.13;;;17.50;99.90;;;18.38;100.00;100943.13;5064016;28;20040;-77
2023/08/17 01:18:52;;;;;;;10.90;4.40;;;17.40;99.90;;;18.30;100.00;100947.19;5063946;28;20037;-77
2023/08/17 01:21:22;;;;;;;9.82;4.30;;;17.30;99.90;;;18.21;100.00;100943.25;5058869;28;20472;-78
2023/08/17 01:23:50;;;;;;;7.90;4.65;;;17.30;99.90;;;18.08;100.00;100930.69;5066413;28;20032;-77
2023/08/17 01:26:15;;;;;;;8.88;4.35;;;17.20;99.90;;;17.96;100.00;100912.31;5066510;28;20392;-77
2023/08/17 01:28:50;;;;;;;9.32;4.55;;;17.10;99.90;;;17.85;100.00;100880.22;5040563;28;20045;-76
2023/08/17 01:31:31;;;;;;;8.85;4.90;;;17.00;99.90;;;17.88;100.00;100879.69;5054171;28;20028;-77
2023/08/17 01:34:05;;;;;;;9.05;4.97;;;17.00;99.90;;;17.80;100.00;100853.38;5067989;28;20044;-78
2023/08/17 01:36:43;;;;;;;13.38;6.13;;;16.90;99.90;;;17.85;100.00;100837.97;5057789;28;20041;-77
2023/08/17 01:39:11;;;;;;;10.93;5.78;;;16.90;99.90;;;17.93;100.00;100830.06;5037430;28;20032;-77
2023/08/17 01:41:41;;;;;;;14.13;6.70;;;16.90;99.90;;;17.95;100.00;100827.84;5066871;28;20036;-77
2023/08/17 01:44:07;;;;;;;9.20;5.88;;;16.90;99.90;;;17.85;100.00;100802.94;5049112;28;20484;-78
2023/08/17 01:46:33;;;;;;;12.10;6.78;;;16.90;99.90;;;17.89;100.00;100795.81;5064283;28;20091;-78
2023/08/17 01:48:59;;;;;;;11.80;6.55;;;17.00;99.90;;;17.90;100.00;100774.53;5064112;28;20044;-78
2023/08/17 01:51:25;;;;;;;12.73;6.85;;;16.90;99.90;;;17.82;100.00;100745.53;5050369;28;20412;-79
2023/08/17 01:53:51;;;;;;;10.63;6.82;;;17.00;99.90;;;17.85;100.00;100739.47;5059751;28;20048;-79
2023/08/17 01:56:17;;;;;;;12.38;7.03;;;16.90;99.90;;;17.81;100.00;100732.81;5048359;28;20503;-79
2023/08/17 01:58:44;;;;;;;13.60;7.00;;;16.90;99.90;;;17.73;100.00;100719.50;5047857;28;20543;-80
2023/08/17 02:01:10;;;;;;;12.65;7.50;;;16.90;99.90;;;17.62;100.00;100713.06;5054128;28;20492;-79
2023/08/17 02:03:36;;;;;;;10.27;6.45;;;16.90;99.90;;;17.67;100.00;100716.69;5064998;28;20036;-79
2023/08/17 02:06:02;;;;;;;12.15;6.85;;;16.80;99.90;;;17.59;100.00;100725.47;5067594;28;20036;-79
2023/08/17 02:08:29;;;;;;;10.93;7.28;;;16.80;99.90;;;17.64;100.00;100720.00;5060803;28;20154;-78
2023/08/17 02:10:54;;;;;;;13.23;8.00;;;16.80;99.90;;;17.61;100.00;100712.25;5065342;28;20074;-78
2023/08/17 02:13:21;;;;;;;11.18;7.03;;;16.80;99.90;;;17.64;100.00;100700.69;5049557;28;20098;-78
2023/08/17 02:15:47;;;;;;;11.02;7.50;;;16.80;99.90;;;17.69;100.00;100697.13;5048462;28;20036;-78
2023/08/17 02:18:13;;;;;;;15.30;8.00;;;16.80;99.90;;;17.65;100.00;100690.50;5066345;28;20488;-79
2023/08/17 02:20:38;;;;;;;13.15;7.95;;;16.80;99.90;;;17.66;100.00;100675.59;5066896;28;20048;-79
2023/08/17 02:23:04;;;;;;;12.15;8.15;;;16.80;99.90;;;17.68;100.00;100674.22;5041854;28;20032;-79
2023/08/17 02:25:35;;;;;;;12.75;8.32;;;16.80;99.90;;;17.67;100.00;100661.53;5065108;28;20028;-78
2023/08/17 02:28:03;;;;;;;12.82;8.30;;;16.80;99.90;;;17.71;100.00;100661.84;5067693;28;20475;-78
2023/08/17 02:30:29;;;;;;;14.25;8.40;;;16.80;99.90;;;17.68;100.00;100656.84;5053501;28;20083;-79
2023/08/17 02:32:58;;;;;;;13.60;9.18;;;16.80;99.90;;;17.66;100.00;100635.03;5065191;28;20055;-78
2023/08/17 02:35:24;;;;;;;14.30;9.10;;;16.80;99.90;;;17.54;100.00;100626.13;5060098;28;20119;-79
2023/08/17 02:37:49;;;;;;;11.25;8.38;;;16.80;99.90;;;17.58;100.00;100605.19;5065185;28;20384;-78
2023/08/17 02:40:15;;;;;;;14.32;9.20;;;16.80;99.90;;;17.55;100.00;100614.00;5038999;28;20028;-78
2023/08/17 02:42:41;;;;;;;14.45;8.90;;;16.80;99.90;;;17.62;100.00;100606.31;5054142;28;20461;-79
2023/08/17 02:45:08;;;;;;;14.88;9.00;;;16.80;99.90;;;17.65;100.00;100616.00;5044371;28;20036;-77
2023/08/17 02:47:35;;;;;;;15.32;9.57;;;16.80;99.90;;;17.67;100.00;100617.38;5039272;28;20455;-79
2023/08/17 02:50:01;;;;;;;14.25;9.15;;;16.80;99.90;;;17.56;100.00;100587.25;5065873;28;20035;-79
2023/08/17 02:52:27;;;;;;;13.98;9.50;;;16.80;99.90;;;17.66;100.00;100598.38;5067331;28;20036;-78
2023/08/17 02:54:53;;;;;;;13.40;8.55;;;16.80;99.90;;;17.58;100.00;100569.34;5065945;28;20376;-79
2023/08/17 02:57:19;;;;;;;14.27;8.15;;;16.80;99.90;;;17.61;100.00;100567.97;5054921;28;20036;-78
2023/08/17 02:59:46;;;;;;;12.68;8.43;;;16.80;99.90;;;17.64;100.00;100568.28;5058682;28;20495;-78
2023/08/17 03:02:11;;;;;;;15.32;8.48;;;16.80;99.90;;;17.58;100.00;100566.59;5049317;28;20028;-79
2023/08/17 03:04:37;;;;;;;12.77;8.45;;;16.80;99.90;;;17.58;100.00;100558.31;5060512;28;20272;-79
2023/08/17 03:07:03;;;;;;;13.40;8.60;;;16.80;99.90;;;17.66;100.00;100566.06;5064767;28;20465;-79
2023/08/17 03:09:29;;;;;;;12.55;8.00;;;16.80;99.90;;;17.74;100.00;100570.28;5043555;28;20036;-79
2023/08/17 03:11:55;;;;;;;12.38;8.57;;;16.80;99.90;;;17.71;100.00;100575.47;5062102;28;20041;-79
2023/08/17 03:14:21;;;;;;;13.77;8.75;;;16.80;99.90;;;17.59;100.00;100570.16;5037255;28;20037;-78
2023/08/17 03:16:47;;;;;;;13.05;9.00;;;16.80;99.90;;;17.56;100.00;100552.25;5068930;28;20032;-79
2023/08/17 03:19:15;;;;;;;14.57;9.15;;;16.70;99.90;;;17.47;100.00;100529.84;5068711;28;20025;-79
2023/08/17 03:21:42;;;;;;;13.00;8.73;;;16.80;99.90;;;17.47;100.00;100524.31;5069323;28;20029;-79
2023/08/17 03:24:09;;;;;;;14.60;9.13;;;16.80;99.90;;;17.52;100.00;100526.28;5058609;28;20111;-78
2023/08/17 03:26:35;;;;;;;13.85;8.23;;;16.70;99.90;;;17.56;100.00;100529.31;5070600;28;20124;-77
2023/08/17 03:29:01;;;;;;;16.95;9.13;;;16.70;99.90;;;17.65;100.00;100525.81;5054947;28;20044;-77
2023/08/17 03:31:26;;;;;;;13.02;8.82;;;16.80;99.90;;;17.66;100.00;100526.66;5069006;28;20025;-78
2023/08/17 03:33:53;;;;;;;11.73;7.65;;;16.70;99.90;;;17.57;100.00;100531.84;5068592;28;20032;-78
2023/08/17 03:36:19;;;;;;;11.05;8.70;;;16.80;99.90;;;17.63;100.00;100522.47;5067073;28;20452;-78
2023/08/17 03:38:47;;;;;;;14.55;8.77;;;16.80;99.90;;;17.76;100.00;100534.97;5069469;28;20044;-79
2023/08/17 03:41:13;;;;;;;13.85;8.90;;;16.80;99.90;;;17.73;100.00;100531.91;5066683;28;20045;-78
2023/08/17 03:43:39;;;;;;;13.55;8.93;;;16.80;99.90;;;17.78;100.00;100540.22;5058341;28;20055;-77
2023/08/17 03:46:08;;;;;;;13.70;9.45;;;16.80;99.90;;;17.83;100.00;100543.00;5068040;28;20603;-78
2023/08/17 03:48:34;;;;;;;13.98;9.57;;;16.80;99.90;;;17.71;100.00;100531.34;5065084;28;20120;-79
2023/08/17 03:51:01;;;;;;;11.73;9.38;;;16.80;99.90;;;17.78;100.00;100538.28;5054377;28;20101;-78
2023/08/17 03:53:27;;;;;;;11.20;9.37;;;16.80;99.90;;;17.77;100.00;100542.13;5065882;28;20036;-77
2023/08/17 03:55:53;;;;;;;12.73;9.10;;;16.90;99.90;;;17.85;100.00;100540.81;5067322;28;20048;-79
2023/08/17 03:58:19;;;;;;;15.05;9.38;;;16.90;99.90;;;17.85;100.00;100535.28;5050536;28;20033;-77
2023/08/17 04:00:52;;;;;;;12.55;9.10;;;16.90;99.90;;;17.87;100.00;100548.81;5056145;28;20056;-79
2023/08/17 04:03:23;;;;;;;;;;;16.90;99.90;;;17.88;100.00;100540.25;5053540;28;20045;-77
2023/08/17 04:05:49;;;;;;;10.98;8.38;;;16.90;99.90;;;17.90;100.00;100539.97;5031370;28;19979;-77
2023/08/17 04:08:14;;;;;;;10.70;9.13;;;16.90;99.90;;;17.86;100.00;100531.44;5059755;28;20037;-78
2023/08/17 04:10:40;;;;;;;12.32;9.63;;;16.90;99.90;;;17.87;100.00;100535.00;5060045;28;20033;-78
2023/08/17 04:13:06;;;;;;;10.70;8.77;;;17.00;99.90;;;17.92;100.00;100516.56;5049865;28;20071;-78
2023/08/17 04:15:31;;;;;;;12.88;9.27;;;17.00;99.90;;;17.91;100.00;100516.84;5059346;28;20064;-77
2023/08/17 04:17:57;;;;;;;12.07;9.18;;;17.00;99.90;;;18.07;100.00;100537.06;5061479;28;20093;-78
2023/08/17 04:20:25;;;;;;;12.95;8.82;;;17.00;99.90;;;18.05;100.00;100533.75;5049773;28;20496;-77
2023/08/17 04:22:50;;;;;;;12.40;9.30;;;17.00;99.90;;;17.98;100.00;100515.47;5036675;28;20059;-78
2023/08/17 04:25:16;;;;;;;10.75;9.27;;;17.10;99.90;;;18.12;100.00;100531.56;5069624;28;20476;-78
2023/08/17 04:27:42;;;;;;;11.75;9.93;;;17.10;99.90;;;18.02;100.00;100523.22;5052887;28;20029;-79
2023/08/17 04:30:10;;;;;;;12.75;10.38;;;17.10;99.90;;;18.11;100.00;100525.19;5068945;28;20029;-77
2023/08/17 04:32:51;;;;;;;13.30;10.13;;;17.10;99.90;;;18.21;100.00;100526.34;5046216;28;20180;-79
2023/08/17 04:35:19;;;;;;;12.75;10.10;;;17.20;99.90;;;18.23;100.00;100526.91;5052266;28;20035;-79
2023/08/17 04:37:44;;;;;;;13.03;10.17;;;17.20;99.90;;;18.20;100.00;100528.28;5035622;28;20120;-78
2023/08/17 04:40:11;;;;;;;14.40;10.90;;;17.30;99.90;;;18.21;100.00;100516.13;5064627;28;20499;-78
2023/08/17 04:42:37;;;;;;;15.80;10.95;;;17.30;99.90;;;18.33;100.00;100528.88;5050045;28;20090;-79
2023/08/17 04:45:03;;;;;;;11.48;10.07;;;17.30;99.90;;;18.23;100.00;100526.91;5048895;28;20060;-81
2023/08/17 04:47:31;;;;;;;13.00;11.43;;;17.30;99.90;;;18.26;100.00;100527.19;5047012;28;20020;-82
2023/08/17 04:49:57;;;;;;;13.00;10.68;;;17.30;99.90;;;18.24;100.00;100525.81;5052424;28;20109;-80
2023/08/17 04:52:23;;;;;;;13.40;11.95;;;17.30;99.90;;;18.39;100.00;100538.84;5067526;28;20085;-82
2023/08/17 04:54:50;;;;;;;13.43;12.10;;;17.30;99.90;;;18.28;100.00;100539.88;5063402;28;20119;-82
2023/08/17 04:57:17;;;;;;;14.20;11.32;;;17.30;99.90;;;18.28;100.00;100543.50;5039229;28;20036;-81
2023/08/17 04:59:43;;;;;;;;;;;17.30;99.90;;;18.40;100.00;100546.81;5053582;28;20035;-80
2023/08/17 05:02:09;;;;;;;16.15;12.10;;;17.40;99.90;;;18.39;100.00;100547.94;5055952;28;19916;-81
2023/08/17 05:04:37;;;;;;;14.07;12.27;;;17.40;99.90;;;18.32;100.00;100532.75;5066019;28;20219;-79
2023/08/17 05:07:03;;;;;;;15.68;12.85;;;17.40;99.90;;;18.43;100.00;100548.22;5069419;28;20493;-79
2023/08/17 05:09:30;;;;;;;17.58;12.25;;;17.40;99.90;;;18.37;100.00;100543.78;5052730;28;20052;-80
2023/08/17 05:11:56;;;;;;;14.05;11.55;;;17.40;99.90;;;18.38;100.00;100565.59;5068833;28;20036;-80
2023/08/17 05:14:21;;;;;;;14.07;11.85;;;17.40;99.90;;;18.49;100.00;100552.66;5063283;28;20053;-80
2023/08/17 05:16:47;;;;;;;14.93;12.30;;;17.40;99.90;;;18.51;100.00;100555.97;5059169;28;20773;-79
2023/08/17 05:19:13;;;;;;;15.30;12.70;;;17.40;99.90;;;18.57;100.00;100572.56;5063035;28;20512;-79
2023/08/17 05:21:39;;;;;;;14.88;12.88;;;17.50;99.90;;;18.62;100.00;100576.16;5049825;28;20025;-82
2023/08/17 05:24:05;;;;;;;15.93;12.70;;;17.50;99.90;;;18.67;100.00;100578.13;5066229;28;20045;-80
2023/08/17 05:26:31;;;;;;;14.15;12.65;;;17.50;99.90;;;18.64;100.00;100570.38;5050264;28;20086;-81
2023/08/17 05:28:57;;;;;;;14.63;12.05;;;17.60;99.90;;;18.70;100.00;100577.56;5055329;28;20392;-78
2023/08/17 05:31:24;;;;;;;14.93;12.43;;;17.60;99.90;;;18.72;100.00;100569.00;5049985;28;20028;-78
2023/08/17 05:33:51;;;;;;;15.55;12.85;;;17.60;99.90;;;18.69;100.00;100570.38;5051939;28;20025;-78
2023/08/17 05:36:18;;;;;;;14.68;12.70;;;17.60;99.90;;;18.72;100.00;100567.06;5067025;28;20063;-77
2023/08/17 05:38:46;;;;;;;15.75;13.40;;;17.60;99.90;;;18.81;100.00;100592.22;5048000;28;20135;-78
2023/08/17 05:41:12;;;;;;;14.70;12.18;;;17.60;99.90;;;18.79;100.00;100581.44;5051702;28;20441;-77
2023/08/17 05:43:38;;;;;;;13.95;11.77;;;17.60;99.90;;;18.73;100.00;100584.50;5052472;28;20044;-77
2023/08/17 05:46:04;;;;;;;16.27;12.10;;;17.70;99.90;;;18.76;100.00;100592.22;5047423;28;20039;-78
2023/08/17 05:48:30;;;;;;;13.40;11.43;;;17.60;99.90;;;18.73;100.00;100581.72;5063428;28;20490;-79
2023/08/17 05:50:56;;;;;;;14.02;11.55;;;17.70;99.90;;;18.81;100.00;100592.22;5064151;28;20036;-80
2023/08/17 05:53:22;;;;;;;14.38;12.13;;;17.70;99.90;;;18.77;100.00;100591.94;5051562;28;20131;-79
2023/08/17 05:55:48;;;;;;;15.40;12.10;;;17.70;99.90;;;18.83;100.00;100588.09;5065318;28;20063;-80
2023/08/17 05:58:13;;;;;;;13.55;11.65;;;17.70;99.90;;;18.85;100.00;100589.75;5056880;28;20037;-79
2023/08/17 06:00:39;;;;;;;14.32;12.35;;;17.70;99.90;;;18.87;100.00;100582.03;5036291;28;20033;-78
2023/08/17 06:03:05;;;;;;;13.07;11.40;;;17.80;99.90;;;18.92;100.00;100602.19;5057313;28;20043;-79
2023/08/17 06:05:31;;;;;;;12.65;11.02;;;17.80;99.90;;;18.98;100.00;100611.34;5052927;28;20033;-78
2023/08/17 06:07:57;;;;;;;13.20;10.73;;;17.80;99.90;;;19.09;100.00;100628.78;5058601;28;20049;-79
2023/08/17 06:10:27;;;;;;;13.57;10.80;;;17.80;99.90;;;19.13;100.00;100645.66;5059554;28;20113;-78
2023/08/17 06:12:57;;;;;;;12.70;10.10;;;17.80;99.90;;;18.99;100.00;100645.38;5059802;28;20045;-79
2023/08/17 06:15:23;;;;;;;12.35;10.63;;;17.80;99.90;;;19.06;100.00;100651.47;5064036;28;20044;-79
2023/08/17 06:17:50;;;;;;;13.00;10.30;;;17.80;99.90;;;19.03;100.00;100657.53;5066750;28;20035;-78
2023/08/17 06:20:16;;;;;;;12.05;10.10;;;17.80;99.90;;;19.00;100.00;100653.38;5064623;28;20037;-78
2023/08/17 06:22:42;;;;;;;12.95;10.38;;;17.80;99.90;;;19.02;100.00;100661.41;5058841;28;20051;-78
2023/08/17 06:25:08;;;;;;;13.77;10.63;;;17.80;99.90;;;19.09;100.00;100657.25;5067460;28;20028;-79
2023/08/17 06:27:35;;;;;;;12.43;10.52;;;17.80;99.90;;;19.03;100.00;100646.47;5068556;28;20039;-78
2023/08/17 06:30:03;;;;;;;11.65;10.13;;;17.80;99.90;;;19.06;100.00;100649.50;5060469;28;20377;-78
2023/08/17 06:32:30;;;;;;;10.40;9.40;;;17.90;99.90;;;19.06;100.00;100643.16;5063785;28;20033;-78
2023/08/17 06:34:56;;;;;;;10.88;8.98;;;17.90;99.90;;;19.13;100.00;100671.38;5053567;28;20037;-79
2023/08/17 06:37:21;;;;;;;9.60;8.60;;;17.90;99.90;;;19.13;100.00;100678.84;5060892;28;20037;-78
2023/08/17 06:39:47;;;;;;;11.07;8.55;;;17.90;99.90;;;19.17;100.00;100682.72;5067957;28;20028;-79
2023/08/17 06:42:13;;;;;;;11.60;8.15;;;17.90;99.90;;;18.93;100.00;100697.81;5056106;28;20024;-79
2023/08/17 06:44:38;;;;;;;12.95;7.88;;;17.90;99.90;;;19.03;100.00;100685.19;5051635;28;20337;-78
2023/08/17 06:47:04;;;;;;;9.05;7.78;;;17.90;99.90;;;19.19;100.00;100699.88;5060575;28;20029;-78
2023/08/17 06:49:30;;;;;;;9.52;7.68;;;18.00;99.90;;;19.27;100.00;100704.84;5060785;28;20048;-78
2023/08/17 06:51:56;;;;;;;9.43;7.72;;;17.90;99.90;;;19.32;100.00;100720.63;5071782;28;20040;-79
2023/08/17 06:54:22;;;;;;;9.93;7.75;;;18.00;99.90;;;19.24;100.00;100730.28;5067701;28;20058;-78
2023/08/17 06:56:48;;;;;;;9.25;7.55;;;18.00;99.90;;;19.31;100.00;100744.66;5055238;28;20029;-78
2023/08/17 06:59:14;;;;;;;7.75;7.00;;;18.00;99.90;;;19.11;100.00;100743.53;5066476;28;20425;-77
2023/08/17 07:01:39;;;;;;;9.45;6.95;;;18.10;99.90;;;19.18;100.00;100753.50;5064104;28;20064;-78
2023/08/17 07:04:05;;;;;;;7.68;6.85;;;18.00;99.90;;;19.20;100.00;100741.06;5067503;28;20042;-79
2023/08/17 07:06:31;;;;;;;8.05;7.25;;;18.10;99.90;;;19.24;100.00;100749.66;5055496;28;20397;-79
2023/08/17 07:08:57;;;;;;;7.78;6.97;;;18.10;99.90;;;19.29;100.00;100757.94;5061808;28;20049;-78
2023/08/17 07:11:23;;;;;;;9.68;7.10;;;18.10;99.90;;;19.35;100.00;100759.59;5067154;28;20032;-78
2023/08/17 07:13:48;;;;;;;8.48;7.45;;;18.10;99.90;;;19.41;100.00;100774.28;5064456;28;20041;-79
2023/08/17 07:16:14;;;;;;;8.80;7.00;;;18.20;99.90;;;19.35;100.00;100775.38;5059634;28;20249;-79
2023/08/17 07:18:41;;;;;;;7.65;6.85;;;18.20;99.90;;;19.38;100.00;100775.69;5057368;28;20460;-79
2023/08/17 07:21:07;;;;;;;9.57;7.25;;;18.20;99.90;;;19.45;100.00;100769.88;5066720;28;20036;-80
2023/08/17 07:23:32;;;;;;;9.73;6.95;;;18.30;99.90;;;19.40;100.00;100748.59;5062989;28;20045;-78
2023/08/17 07:25:58;;;;;;;7.47;6.68;;;18.30;99.90;;;19.43;100.00;100766.53;5061983;28;20480;-79
2023/08/17 07:28:24;;;;;;;8.60;6.55;;;18.40;99.90;;;19.49;100.00;100776.50;5066827;28;20082;-79
2023/08/17 07:30:49;;;;;;;9.50;6.90;;;18.40;99.90;;;19.56;100.00;100776.25;5065299;28;20083;-79
2023/08/17 07:33:15;;;;;;;7.65;6.40;;;18.40;99.90;;;19.54;100.00;100782.06;5065795;28;20052;-80
2023/08/17 07:35:41;;;;;;;7.30;5.72;;;18.40;99.90;;;19.59;100.00;100802.56;5036484;28;20044;-79
2023/08/17 07:38:07;;;;;;;6.38;5.53;;;18.40;99.90;;;19.52;100.00;100819.41;5052862;28;20072;-79
2023/08/17 07:40:32;;;;;;;7.25;5.78;;;18.40;99.90;;;19.65;100.00;100835.50;5069973;28;20098;-82
2023/08/17 07:42:58;;;;;;;6.28;5.68;;;18.40;99.90;;;19.63;100.00;100814.72;5058304;28;20044;-79
2023/08/17 07:45:24;;;;;;;6.85;5.68;;;18.40;99.90;;;19.75;100.00;100828.31;5053893;28;20036;-82
2023/08/17 07:47:50;;;;;;;6.45;5.38;;;;;;;19.79;100.00;100830.25;5070873;28;20087;-82
2023/08/17 07:50:16;;;;;;;8.00;5.60;;;18.50;99.90;;;19.73;100.00;100797.31;5055606;28;20040;-82
2023/08/17 07:52:42;;;;;;;7.15;5.68;;;18.50;99.90;;;19.85;100.00;100831.09;5055948;28;20040;-83
2023/08/17 07:55:08;;;;;;;7.15;5.55;;;18.50;99.90;;;19.88;100.00;100849.09;5065555;28;20028;-82
2023/08/17 07:57:33;;;;;;;6.50;5.05;;;18.50;99.90;;;19.74;100.00;100848.78;5067407;28;20091;-81
2023/08/17 07:59:59;;;;;;;6.07;5.38;;;18.50;99.90;;;19.74;100.00;100855.16;5051930;28;20511;-82
2023/08/17 08:02:25;;;;;;;7.35;5.05;;;18.40;99.90;;;19.69;100.00;100863.44;5053185;28;20044;-81
2023/08/17 08:04:50;;;;;;;8.27;5.25;;;18.40;99.90;;;19.69;100.00;100866.22;5070668;28;20036;-81
2023/08/17 08:07:16;;;;;;;5.82;5.10;;;18.40;99.90;;;19.56;100.00;100845.41;5070072;28;20039;-78
2023/08/17 08:09:42;;;;;;;9.05;5.35;;;18.30;99.90;;;19.66;100.00;100848.22;5052005;28;20052;-80
2023/08/17 08:12:07;;;;;;;6.38;5.35;;;18.30;99.90;;;19.55;100.00;100852.91;5071676;28;20041;-80
2023/08/17 08:14:35;;;;;;;8.15;5.50;;;18.30;99.90;;;19.71;100.00;100854.88;5034606;28;20139;-80
2023/08/17 08:17:00;;;;;;;6.13;5.43;;;18.30;99.90;;;19.52;100.00;100839.63;5071180;28;20060;-81
2023/08/17 08:19:26;;;;;;;5.88;5.10;;;18.30;99.90;;;19.69;100.00;100867.06;5048137;28;20036;-81
2023/08/17 08:21:53;;;;;;;7.78;5.60;;;18.30;99.90;;;19.80;100.00;100856.00;5068678;28;20476;-82
2023/08/17 08:24:19;;;;;;;5.20;4.60;;;18.30;99.90;;;19.79;100.00;100849.63;5062745;28;20036;-80
2023/08/17 08:26:45;;;;;;;8.77;5.07;;;18.40;99.90;;;19.82;100.00;100848.25;5069903;28;20519;-82
2023/08/17 08:29:10;;;;;;;8.05;5.05;;;18.40;99.90;;;19.80;100.00;100853.22;5066950;28;20041;-80
2023/08/17 08:31:36;;;;;;;6.20;4.80;;;18.40;99.90;;;19.83;100.00;100855.44;5044394;28;20043;-81
2023/08/17 08:34:02;;;;;;;6.82;4.80;;;18.40;99.90;;;19.86;100.00;100857.66;5064557;28;20044;-80
2023/08/17 08:36:27;;;;;;;5.65;4.47;;;18.50;99.90;;;19.82;100.00;100859.31;5064797;28;20044;-81
2023/08/17 08:38:53;;;;;;;6.88;4.93;;;18.50;99.90;;;19.86;100.00;100877.03;5069693;28;20037;-81
2023/08/17 08:41:19;;;;;;;8.05;5.30;;;18.50;99.90;;;19.89;100.00;100864.59;5068819;28;20041;-81
2023/08/17 08:43:45;;;;;;;7.57;5.38;;;18.50;99.90;;;19.96;100.00;100873.47;5069790;28;20038;-80
2023/08/17 08:46:14;;;;;;;7.05;5.15;;;18.50;99.90;;;20.01;100.00;100872.66;5069073;28;20388;-81
2023/08/17 08:48:47;;;;;;;8.57;5.82;;;18.60;99.90;;;20.01;100.00;100880.97;5069433;28;20080;-81
2023/08/17 08:51:22;;;;;;;7.32;5.40;;;18.60;99.90;;;19.75;100.00;100872.59;5059932;28;20037;-80
2023/08/17 08:53:57;;;;;;;5.75;5.07;;;18.60;99.90;;;19.92;100.00;100886.22;5057731;28;20075;-80
2023/08/17 08:56:25;;;;;;;8.98;5.55;;;18.60;99.90;;;19.97;100.00;100898.13;5069040;28;20037;-79
2023/08/17 08:58:52;;;;;;;6.63;5.10;;;18.50;99.90;;;19.94;100.00;100893.16;5063505;28;20128;-83
2023/08/17 09:01:19;;;;;;;4.82;4.32;;;18.60;99.90;;;20.09;100.00;100905.34;5064257;28;20059;-81
2023/08/17 09:03:47;;;;;;;5.95;5.00;;;18.60;99.90;;;19.97;100.00;100895.38;5063029;28;20036;-80
2023/08/17 09:06:15;;;;;;;6.45;4.65;;;18.60;99.90;;;20.07;100.00;100896.47;5071250;28;20059;-81
2023/08/17 09:08:41;;;;;;;;;;;18.60;99.90;;;20.04;100.00;100900.66;5066466;28;20033;-81
2023/08/17 09:11:07;;;;;;;5.53;4.75;;;18.70;99.90;;;20.20;100.00;100897.88;5076647;28;19924;-79
2023/08/17 09:13:33;;;;;;;6.78;4.63;;;18.80;99.90;;;20.23;100.00;100909.25;5066445;28;20037;-81
2023/08/17 09:16:01;;;;;;;6.28;4.30;;;18.80;99.90;;;20.20;100.00;100915.34;5068551;28;20503;-81
2023/08/17 09:18:27;;;;;;;5.40;4.22;;;18.90;99.90;;;20.30;100.00;100927.53;5068851;28;20473;-81
2023/08/17 09:20:54;;;;;;;4.82;3.85;;;;;;;20.39;100.00;100923.94;5060959;28;20047;-80
2023/08/17 09:23:21;;;;;;;4.80;4.07;;;;;;;20.50;100.00;100935.00;5061452;28;20051;-83
2023/08/17 09:25:49;;;;;;;4.60;3.90;;;;;;;20.47;100.00;100939.19;5067491;28;20028;-80
2023/08/17 09:28:19;;;;;;;5.07;3.92;;;;;;;20.55;100.00;100935.00;5064641;28;20435;-83
2023/08/17 09:30:58;;;;;;;4.63;3.70;;;;;;;20.32;100.00;100955.78;5064267;28;20037;-83
2023/08/17 09:33:27;;;;;;;4.93;4.00;;;;;;;20.08;100.00;100951.59;5046634;28;20033;-80
2023/08/17 09:35:55;;;;;;;5.32;4.38;;;18.90;99.90;;;19.98;100.00;100946.88;5056393;28;20086;-83
2023/08/17 09:38:21;;;;;;;5.45;4.28;;;18.80;99.90;;;19.89;100.00;100954.03;5059236;28;20037;-83
2023/08/17 09:40:48;;;;;;;5.40;4.10;;;;;;;19.77;100.00;100954.25;5055459;28;20036;-82
2023/08/17 09:43:15;;;;;;;4.93;4.10;;;18.50;99.90;;;19.73;100.00;100942.03;5051678;28;20036;-82
2023/08/17 09:45:48;;;;;;;4.95;3.58;;;18.50;99.90;;;19.64;100.00;100946.44;5067878;28;20446;-82
2023/08/17 09:48:17;;;;;;;4.03;3.58;;;18.50;99.90;;;19.80;100.00;100952.88;5060847;28;20068;-82
2023/08/17 09:50:45;;;;;;;4.25;3.03;;;18.50;99.90;;;19.92;100.00;100945.19;5064564;28;20029;-81
2023/08/17 09:53:15;;;;;;;2.90;2.30;;;;;;;20.17;100.00;100967.66;5058558;28;20060;-83
2023/08/17 09:55:45;;;;;;;5.47;2.90;;;;;;;20.23;100.00;100988.72;5059092;28;20047;-81
2023/08/17 09:58:15;;;;;;;4.47;3.40;;;;;;;20.18;100.00;101005.34;5053060;28;20037;-84
2023/08/17 10:00:51;;;;;;;4.13;2.83;;;;;;;20.19;100.00;101020.84;5062246;28;20060;-83
2023/08/17 10:03:19;;;;;;;4.00;2.80;;;;;;;20.17;100.00;101021.16;5051317;28;20032;-81
2023/08/17 10:05:53;;;;;;;;;;;;;;;20.22;100.00;101026.69;5045410;28;20044;-84